Time;durP1;ratioP1;P1;durP2;ratioP2;P2;SDS_P1;SDS_P2;PMS_P1;PMS_P2;Temp;Humidity;BMP_temperature;BMP_pressure;BME280_temperature;BME280_humidity;BME280_pressure;Samples;Min_cycle;Max_cycle;Signal;HPM_P1;HPM_P2
2023/04/03 00:41:21;;;;;;;;;;;10.90;85.10;;;;;;6126492;23;19932;-96
2023/04/03 00:57:57;;;;;;;;;;;10.80;84.40;;;;;;6159546;23;19936;-96
2023/04/03 01:34:07;;;;;;;;;;;10.30;83.90;;;;;;6180440;23;20037;-96
2023/04/03 01:36:53;;;;;;;;;;;10.20;84.40;;;;;;6183911;23;19904;-96
2023/04/03 01:39:25;;;;;;;;;;;10.10;84.60;;;;;;6183676;23;19916;-96
2023/04/03 01:41:59;;;;;;;;;;;10.20;84.60;;;;;;6154530;23;19909;-96
2023/04/03 01:44:27;;;;;;;;;;;10.20;84.70;;;;;;6144368;23;19913;-96
2023/04/03 01:47:14;;;;;;;;;;;10.20;85.10;;;;;;6183377;23;19893;-96
2023/04/03 01:49:42;;;;;;;;;;;10.30;85.10;;;;;;6157531;23;19920;-96
2023/04/03 01:52:09;;;;;;;;;;;10.40;84.90;;;;;;6158356;23;19909;-96
2023/04/03 01:54:37;;;;;;;;;;;10.20;84.20;;;;;;6157405;23;19911;-96
2023/04/03 01:57:29;;;;;;;;;;;10.10;83.30;;;;;;6183059;23;19904;-96
2023/04/03 01:59:56;;;;;;;;;;;10.00;83.70;;;;;;6145957;23;19923;-96
2023/04/03 02:02:24;;;;;;;;;;;9.90;84.00;;;;;;6158317;23;19912;-96
2023/04/03 02:04:57;;;;;;;;;;;9.80;83.10;;;;;;6152097;23;19908;-96
2023/04/03 02:07:32;;;;;;;;;;;9.70;82.90;;;;;;6158494;23;19892;-96
2023/04/03 02:10:07;;;;;;;;;;;9.70;83.00;;;;;;6155445;23;19901;-96
2023/04/03 02:12:36;;;;;;;;;;;9.60;83.20;;;;;;6134092;23;19908;-96
2023/04/03 02:15:03;;;;;;;;;;;9.40;84.90;;;;;;6158363;23;19928;-96
2023/04/03 02:17:31;;;;;;;;;;;9.40;85.90;;;;;;6156568;23;19904;-96
2023/04/03 02:20:03;;;;;;;;;;;9.40;86.10;;;;;;6157644;23;19916;-96
2023/04/03 02:22:35;;;;;;;;;;;9.30;85.90;;;;;;6183090;23;19920;-96
2023/04/03 02:25:03;;;;;;;;;;;9.30;85.60;;;;;;6133840;23;19908;-96
2023/04/03 02:27:44;;;;;;;;;;;9.30;85.30;;;;;;6181705;23;19888;-96
2023/04/03 02:30:14;;;;;;;;;;;9.30;85.20;;;;;;6157312;23;19911;-96
2023/04/03 02:32:51;;;;;;;;;;;9.40;85.50;;;;;;6183851;23;19901;-96
2023/04/03 02:35:26;;;;;;;;;;;9.40;85.60;;;;;;6184587;23;19952;-96
2023/04/03 02:37:57;;;;;;;;;;;9.60;85.60;;;;;;6185285;23;19908;-96
2023/04/03 02:40:24;;;;;;;;;;;9.70;85.40;;;;;;6159694;23;19916;-96
2023/04/03 02:42:51;;;;;;;;;;;9.80;84.60;;;;;;6158966;23;19897;-96
2023/04/03 02:45:20;;;;;;;;;;;9.90;83.90;;;;;;6159703;23;19909;-96
2023/04/03 02:47:48;;;;;;;;;;;9.90;83.50;;;;;;6159167;23;19913;-96
2023/04/03 02:50:23;;;;;;;;;;;9.80;82.00;;;;;;6159088;23;19889;-96
2023/04/03 02:53:08;;;;;;;;;;;9.70;82.10;;;;;;6183425;23;19984;-96
2023/04/03 02:55:39;;;;;;;;;;;9.70;82.20;;;;;;6128711;23;19913;-96
2023/04/03 02:58:13;;;;;;;;;;;9.90;82.30;;;;;;6154460;23;19909;-96
2023/04/03 03:01:00;;;;;;;;;;;9.90;82.20;;;;;;6152664;23;19929;-96
2023/04/03 03:03:50;;;;;;;;;;;9.90;82.10;;;;;;6124477;23;19898;-96
2023/04/03 03:06:21;;;;;;;;;;;10.00;82.00;;;;;;6121655;23;19930;-96
2023/04/03 03:08:51;;;;;;;;;;;10.00;81.80;;;;;;6124485;23;19897;-96
2023/04/03 03:11:30;;;;;;;;;;;10.00;81.60;;;;;;6122739;23;19969;-96
2023/04/03 03:13:59;;;;;;;;;;;10.10;81.50;;;;;;6099219;23;19914;-96
2023/04/03 03:16:36;;;;;;;;;;;10.10;81.40;;;;;;6124772;23;19913;-96
2023/04/03 03:19:02;;;;;;;;;;;10.20;81.50;;;;;;6100235;23;19944;-96
2023/04/03 03:21:30;;;;;;;;;;;10.20;81.40;;;;;;6100419;23;19925;-96
2023/04/03 03:24:04;;;;;;;;;;;10.20;81.40;;;;;;6124563;23;19909;-96
2023/04/03 03:26:33;;;;;;;;;;;10.20;81.20;;;;;;6123706;23;19889;-96
2023/04/03 03:29:02;;;;;;;;;;;10.10;81.10;;;;;;6100068;23;19906;-96
2023/04/03 03:31:30;;;;;;;;;;;10.00;81.30;;;;;;6071511;23;19910;-96
2023/04/03 03:34:01;;;;;;;;;;;10.00;81.50;;;;;;6123375;23;19905;-96
2023/04/03 03:36:32;;;;;;;;;;;10.00;81.70;;;;;;6096822;23;19960;-96
2023/04/03 03:39:01;;;;;;;;;;;10.00;82.00;;;;;;6099255;23;19916;-96
2023/04/03 03:41:27;;;;;;;;;;;10.00;82.10;;;;;;6099857;23;19909;-96
2023/04/03 03:43:54;;;;;;;;;;;10.00;81.70;;;;;;6099222;23;19889;-96
2023/04/03 03:46:24;;;;;;;;;;;10.00;81.50;;;;;;6100581;23;19909;-96
2023/04/03 03:48:59;;;;;;;;;;;10.00;81.30;;;;;;6124639;23;19964;-96
2023/04/03 03:52:01;;;;;;;;;;;10.00;81.30;;;;;;6123959;23;19897;-96
2023/04/03 03:54:30;;;;;;;;;;;9.90;81.40;;;;;;6124442;23;19916;-96
2023/04/03 03:57:00;;;;;;;;;;;9.90;81.10;;;;;;6124166;23;19897;-96
2023/04/03 03:59:31;;;;;;;;;;;9.80;81.10;;;;;;6124924;23;19900;-96
2023/04/03 04:02:06;;;;;;;;;;;9.80;81.00;;;;;;6100683;23;19913;-96
2023/04/03 04:04:35;;;;;;;;;;;9.60;81.40;;;;;;6121794;23;19913;-96
2023/04/03 04:07:06;;;;;;;;;;;9.50;81.80;;;;;;6125067;23;19889;-96
2023/04/03 04:09:43;;;;;;;;;;;9.40;81.90;;;;;;6124998;23;19909;-96
2023/04/03 04:12:25;;;;;;;;;;;9.40;82.00;;;;;;6139683;23;19897;-96
2023/04/03 04:15:16;;;;;;;;;;;9.30;82.30;;;;;;6153846;23;19924;-96
2023/04/03 04:17:57;;;;;;;;;;;9.20;82.70;;;;;;6137091;23;19921;-96
2023/04/03 04:20:26;;;;;;;;;;;9.10;83.10;;;;;;6153868;23;19899;-96
2023/04/03 04:22:58;;;;;;;;;;;9.00;83.90;;;;;;6142617;23;19904;-96
2023/04/03 04:25:28;;;;;;;;;;;9.10;83.70;;;;;;6137308;23;19953;-96
2023/04/03 04:28:04;;;;;;;;;;;9.00;83.30;;;;;;6143039;23;19909;-96
2023/04/03 04:31:07;;;;;;;;;;;8.90;83.70;;;;;;6124345;23;19893;-96
